sensor_id;sensor_type;location;lat;lon;timestamp;P1;durP1;ratioP1;P2;durP2;ratioP2
70052;SDS011;57398;52.032;4.376;2022-09-28T00:02:10;4.13;;;1.45;;
70052;SDS011;57398;52.032;4.376;2022-09-28T00:04:37;4.03;;;1.38;;
70052;SDS011;57398;52.032;4.376;2022-09-28T00:07:05;4.07;;;1.30;;
70052;SDS011;57398;52.032;4.376;2022-09-28T00:09:33;5.60;;;1.27;;
70052;SDS011;57398;52.032;4.376;2022-09-28T00:12:00;5.20;;;1.50;;
70052;SDS011;57398;52.032;4.376;2022-09-28T00:14:28;6.18;;;1.48;;
70052;SDS011;57398;52.032;4.376;2022-09-28T00:16:57;3.65;;;1.70;;
70052;SDS011;57398;52.032;4.376;2022-09-28T00:19:26;3.90;;;1.23;;
70052;SDS011;57398;52.032;4.376;2022-09-28T00:21:53;5.45;;;1.60;;
70052;SDS011;57398;52.032;4.376;2022-09-28T00:24:20;5.22;;;1.83;;
70052;SDS011;57398;52.032;4.376;2022-09-28T00:26:53;5.38;;;1.77;;
70052;SDS011;57398;52.032;4.376;2022-09-28T00:29:21;4.15;;;1.50;;
70052;SDS011;57398;52.032;4.376;2022-09-28T00:31:50;4.63;;;1.80;;
70052;SDS011;57398;52.032;4.376;2022-09-28T00:34:18;5.30;;;1.52;;
70052;SDS011;57398;52.032;4.376;2022-09-28T00:36:47;4.85;;;1.50;;
70052;SDS011;57398;52.032;4.376;2022-09-28T00:39:15;4.50;;;1.60;;
70052;SDS011;57398;52.032;4.376;2022-09-28T00:41:43;5.25;;;1.70;;
70052;SDS011;57398;52.032;4.376;2022-09-28T00:46:57;4.60;;;1.48;;
70052;SDS011;57398;52.032;4.376;2022-09-28T00:49:28;4.90;;;1.60;;
70052;SDS011;57398;52.032;4.376;2022-09-28T00:51:59;4.85;;;1.52;;
70052;SDS011;57398;52.032;4.376;2022-09-28T00:54:27;5.10;;;1.40;;
70052;SDS011;57398;52.032;4.376;2022-09-28T00:56:55;4.77;;;1.40;;
70052;SDS011;57398;52.032;4.376;2022-09-28T00:59:23;5.15;;;1.20;;
70052;SDS011;57398;52.032;4.376;2022-09-28T01:01:50;3.03;;;1.38;;
70052;SDS011;57398;52.032;4.376;2022-09-28T01:04:18;3.45;;;1.10;;
70052;SDS011;57398;52.032;4.376;2022-09-28T01:06:45;5.75;;;1.50;;
70052;SDS011;57398;52.032;4.376;2022-09-28T01:09:14;5.73;;;1.17;;
70052;SDS011;57398;52.032;4.376;2022-09-28T01:11:42;3.80;;;1.20;;
70052;SDS011;57398;52.032;4.376;2022-09-28T01:14:10;4.22;;;1.15;;
70052;SDS011;57398;52.032;4.376;2022-09-28T01:16:40;2.78;;;1.10;;
70052;SDS011;57398;52.032;4.376;2022-09-28T01:19:12;4.50;;;1.05;;
70052;SDS011;57398;52.032;4.376;2022-09-28T01:21:46;3.53;;;1.00;;
70052;SDS011;57398;52.032;4.376;2022-09-28T01:24:22;4.38;;;1.10;;
70052;SDS011;57398;52.032;4.376;2022-09-28T01:27:04;5.35;;;1.05;;
70052;SDS011;57398;52.032;4.376;2022-09-28T01:32:24;3.53;;;0.93;;
70052;SDS011;57398;52.032;4.376;2022-09-28T01:34:53;3.77;;;1.00;;
70052;SDS011;57398;52.032;4.376;2022-09-28T01:37:24;3.03;;;0.85;;
70052;SDS011;57398;52.032;4.376;2022-09-28T01:39:53;2.20;;;0.80;;
70052;SDS011;57398;52.032;4.376;2022-09-28T01:42:24;2.78;;;0.85;;
70052;SDS011;57398;52.032;4.376;2022-09-28T01:44:53;2.72;;;0.80;;
70052;SDS011;57398;52.032;4.376;2022-09-28T01:47:22;3.47;;;0.67;;
70052;SDS011;57398;52.032;4.376;2022-09-28T01:49:53;2.00;;;0.70;;
70052;SDS011;57398;52.032;4.376;2022-09-28T01:52:23;5.10;;;0.82;;
70052;SDS011;57398;52.032;4.376;2022-09-28T01:54:54;2.70;;;0.75;;
70052;SDS011;57398;52.032;4.376;2022-09-28T01:57:25;4.43;;;0.93;;
70052;SDS011;57398;52.032;4.376;2022-09-28T01:59:58;2.20;;;0.90;;
70052;SDS011;57398;52.032;4.376;2022-09-28T02:02:27;3.20;;;0.70;;
70052;SDS011;57398;52.032;4.376;2022-09-28T02:04:58;4.13;;;0.90;;
70052;SDS011;57398;52.032;4.376;2022-09-28T02:07:29;2.95;;;1.00;;
70052;SDS011;57398;52.032;4.376;2022-09-28T02:09:59;3.60;;;0.70;;
70052;SDS011;57398;52.032;4.376;2022-09-28T02:12:31;4.00;;;0.90;;
70052;SDS011;57398;52.032;4.376;2022-09-28T02:15:04;4.38;;;0.70;;
70052;SDS011;57398;52.032;4.376;2022-09-28T02:17:32;3.55;;;0.88;;
70052;SDS011;57398;52.032;4.376;2022-09-28T02:20:00;2.40;;;0.73;;
70052;SDS011;57398;52.032;4.376;2022-09-28T02:22:29;4.43;;;0.60;;
70052;SDS011;57398;52.032;4.376;2022-09-28T02:25:00;2.33;;;0.50;;
70052;SDS011;57398;52.032;4.376;2022-09-28T02:27:32;2.85;;;0.40;;
70052;SDS011;57398;52.032;4.376;2022-09-28T02:30:00;3.72;;;0.52;;
70052;SDS011;57398;52.032;4.376;2022-09-28T02:32:28;2.22;;;0.50;;
70052;SDS011;57398;52.032;4.376;2022-09-28T02:34:57;2.60;;;0.60;;
70052;SDS011;57398;52.032;4.376;2022-09-28T02:37:25;3.77;;;0.87;;
70052;SDS011;57398;52.032;4.376;2022-09-28T02:39:53;4.75;;;0.80;;
70052;SDS011;57398;52.032;4.376;2022-09-28T02:42:21;3.88;;;0.60;;
70052;SDS011;57398;52.032;4.376;2022-09-28T02:45:02;2.60;;;0.50;;
70052;SDS011;57398;52.032;4.376;2022-09-28T02:47:34;2.47;;;0.40;;
70052;SDS011;57398;52.032;4.376;2022-09-28T02:50:06;2.37;;;0.60;;
70052;SDS011;57398;52.032;4.376;2022-09-28T02:52:48;1.65;;;0.47;;
70052;SDS011;57398;52.032;4.376;2022-09-28T02:55:22;3.28;;;0.63;;
70052;SDS011;57398;52.032;4.376;2022-09-28T02:58:00;2.72;;;0.50;;
70052;SDS011;57398;52.032;4.376;2022-09-28T03:00:31;2.85;;;0.77;;
70052;SDS011;57398;52.032;4.376;2022-09-28T03:03:00;1.80;;;0.30;;
70052;SDS011;57398;52.032;4.376;2022-09-28T03:05:30;3.05;;;0.63;;
70052;SDS011;57398;52.032;4.376;2022-09-28T03:08:01;3.38;;;0.70;;
70052;SDS011;57398;52.032;4.376;2022-09-28T03:10:30;2.88;;;0.80;;
70052;SDS011;57398;52.032;4.376;2022-09-28T03:13:00;3.80;;;0.82;;
70052;SDS011;57398;52.032;4.376;2022-09-28T03:15:28;2.80;;;0.50;;
70052;SDS011;57398;52.032;4.376;2022-09-28T03:17:58;3.25;;;0.50;;
70052;SDS011;57398;52.032;4.376;2022-09-28T03:20:26;2.65;;;0.65;;
70052;SDS011;57398;52.032;4.376;2022-09-28T03:22:53;2.88;;;0.50;;
70052;SDS011;57398;52.032;4.376;2022-09-28T03:25:41;2.63;;;0.75;;
70052;SDS011;57398;52.032;4.376;2022-09-28T03:28:09;3.93;;;0.50;;
70052;SDS011;57398;52.032;4.376;2022-09-28T03:30:36;2.28;;;0.50;;
70052;SDS011;57398;52.032;4.376;2022-09-28T03:33:05;2.72;;;0.68;;
70052;SDS011;57398;52.032;4.376;2022-09-28T03:35:33;2.45;;;0.75;;
70052;SDS011;57398;52.032;4.376;2022-09-28T03:38:00;3.25;;;0.80;;
70052;SDS011;57398;52.032;4.376;2022-09-28T03:40:28;3.90;;;0.60;;
70052;SDS011;57398;52.032;4.376;2022-09-28T03:42:55;3.20;;;0.60;;
70052;SDS011;57398;52.032;4.376;2022-09-28T03:45:24;3.65;;;0.60;;
70052;SDS011;57398;52.032;4.376;2022-09-28T03:47:52;1.98;;;0.47;;
70052;SDS011;57398;52.032;4.376;2022-09-28T03:50:21;3.75;;;0.80;;
70052;SDS011;57398;52.032;4.376;2022-09-28T03:52:48;2.27;;;0.70;;
70052;SDS011;57398;52.032;4.376;2022-09-28T03:55:16;3.13;;;0.70;;
70052;SDS011;57398;52.032;4.376;2022-09-28T03:57:43;3.10;;;0.50;;
70052;SDS011;57398;52.032;4.376;2022-09-28T04:00:11;2.22;;;0.60;;
70052;SDS011;57398;52.032;4.376;2022-09-28T04:02:39;2.50;;;0.75;;
70052;SDS011;57398;52.032;4.376;2022-09-28T04:05:07;2.60;;;0.90;;
70052;SDS011;57398;52.032;4.376;2022-09-28T04:07:35;2.97;;;0.70;;
70052;SDS011;57398;52.032;4.376;2022-09-28T04:10:03;3.80;;;0.80;;
70052;SDS011;57398;52.032;4.376;2022-09-28T04:12:30;3.72;;;0.77;;
70052;SDS011;57398;52.032;4.376;2022-09-28T04:14:58;2.30;;;0.57;;
70052;SDS011;57398;52.032;4.376;2022-09-28T04:17:25;2.03;;;0.60;;
70052;SDS011;57398;52.032;4.376;2022-09-28T04:19:53;2.35;;;0.60;;
70052;SDS011;57398;52.032;4.376;2022-09-28T04:22:20;4.40;;;0.60;;
70052;SDS011;57398;52.032;4.376;2022-09-28T04:24:49;1.95;;;0.70;;
70052;SDS011;57398;52.032;4.376;2022-09-28T04:27:17;2.08;;;0.70;;
70052;SDS011;57398;52.032;4.376;2022-09-28T04:30:02;3.30;;;0.80;;
70052;SDS011;57398;52.032;4.376;2022-09-28T04:32:30;2.92;;;0.60;;
70052;SDS011;57398;52.032;4.376;2022-09-28T04:34:57;2.17;;;0.52;;
70052;SDS011;57398;52.032;4.376;2022-09-28T04:37:25;2.80;;;0.63;;
70052;SDS011;57398;52.032;4.376;2022-09-28T04:39:54;2.10;;;0.70;;
70052;SDS011;57398;52.032;4.376;2022-09-28T04:42:21;4.03;;;0.70;;
70052;SDS011;57398;52.032;4.376;2022-09-28T04:44:49;2.70;;;0.90;;
70052;SDS011;57398;52.032;4.376;2022-09-28T04:47:16;3.92;;;0.68;;
70052;SDS011;57398;52.032;4.376;2022-09-28T04:49:43;2.22;;;0.63;;
70052;SDS011;57398;52.032;4.376;2022-09-28T04:52:11;2.03;;;0.80;;
70052;SDS011;57398;52.032;4.376;2022-09-28T04:54:43;3.87;;;1.10;;
70052;SDS011;57398;52.032;4.376;2022-09-28T04:57:12;3.30;;;1.00;;
70052;SDS011;57398;52.032;4.376;2022-09-28T04:59:39;2.60;;;0.82;;
70052;SDS011;57398;52.032;4.376;2022-09-28T05:02:07;3.05;;;1.15;;
70052;SDS011;57398;52.032;4.376;2022-09-28T05:04:34;2.97;;;0.93;;
70052;SDS011;57398;52.032;4.376;2022-09-28T05:07:02;2.90;;;0.73;;
70052;SDS011;57398;52.032;4.376;2022-09-28T05:09:29;2.78;;;1.00;;
70052;SDS011;57398;52.032;4.376;2022-09-28T05:12:02;3.10;;;0.80;;
70052;SDS011;57398;52.032;4.376;2022-09-28T05:14:31;2.70;;;0.90;;
70052;SDS011;57398;52.032;4.376;2022-09-28T05:16:59;2.67;;;0.80;;
70052;SDS011;57398;52.032;4.376;2022-09-28T05:19:27;3.20;;;1.00;;
70052;SDS011;57398;52.032;4.376;2022-09-28T05:21:55;2.67;;;0.85;;
70052;SDS011;57398;52.032;4.376;2022-09-28T05:24:23;5.00;;;1.23;;
70052;SDS011;57398;52.032;4.376;2022-09-28T05:26:50;2.83;;;1.00;;
70052;SDS011;57398;52.032;4.376;2022-09-28T05:29:18;2.58;;;0.82;;
70052;SDS011;57398;52.032;4.376;2022-09-28T05:31:46;2.63;;;1.00;;
70052;SDS011;57398;52.032;4.376;2022-09-28T05:34:14;2.85;;;1.00;;
70052;SDS011;57398;52.032;4.376;2022-09-28T05:36:41;2.63;;;1.00;;
70052;SDS011;57398;52.032;4.376;2022-09-28T05:39:10;3.13;;;1.02;;
70052;SDS011;57398;52.032;4.376;2022-09-28T05:41:38;2.90;;;1.02;;
70052;SDS011;57398;52.032;4.376;2022-09-28T05:44:05;3.43;;;0.93;;
70052;SDS011;57398;52.032;4.376;2022-09-28T05:46:33;2.20;;;0.70;;
70052;SDS011;57398;52.032;4.376;2022-09-28T05:49:01;3.42;;;0.90;;
70052;SDS011;57398;52.032;4.376;2022-09-28T05:51:29;3.42;;;0.80;;
70052;SDS011;57398;52.032;4.376;2022-09-28T05:53:56;4.63;;;0.70;;
70052;SDS011;57398;52.032;4.376;2022-09-28T05:56:31;3.53;;;0.93;;
70052;SDS011;57398;52.032;4.376;2022-09-28T05:58:58;4.75;;;1.20;;
70052;SDS011;57398;52.032;4.376;2022-09-28T06:01:26;3.30;;;0.90;;
70052;SDS011;57398;52.032;4.376;2022-09-28T06:03:54;3.33;;;1.02;;
70052;SDS011;57398;52.032;4.376;2022-09-28T06:06:23;4.03;;;1.00;;
70052;SDS011;57398;52.032;4.376;2022-09-28T06:08:50;3.50;;;0.87;;
70052;SDS011;57398;52.032;4.376;2022-09-28T06:11:17;3.33;;;0.88;;
70052;SDS011;57398;52.032;4.376;2022-09-28T06:13:46;3.63;;;1.00;;
70052;SDS011;57398;52.032;4.376;2022-09-28T06:16:13;4.97;;;0.80;;
70052;SDS011;57398;52.032;4.376;2022-09-28T06:18:44;3.15;;;0.90;;
70052;SDS011;57398;52.032;4.376;2022-09-28T06:21:11;5.30;;;1.03;;
70052;SDS011;57398;52.032;4.376;2022-09-28T06:23:40;3.17;;;0.90;;
70052;SDS011;57398;52.032;4.376;2022-09-28T06:26:14;4.85;;;1.20;;
70052;SDS011;57398;52.032;4.376;2022-09-28T06:28:42;3.63;;;0.80;;
70052;SDS011;57398;52.032;4.376;2022-09-28T06:31:09;4.07;;;1.13;;
70052;SDS011;57398;52.032;4.376;2022-09-28T06:33:37;3.47;;;1.53;;
70052;SDS011;57398;52.032;4.376;2022-09-28T06:36:07;5.68;;;2.00;;
70052;SDS011;57398;52.032;4.376;2022-09-28T06:38:34;4.72;;;2.00;;
70052;SDS011;57398;52.032;4.376;2022-09-28T06:41:03;5.30;;;1.40;;
70052;SDS011;57398;52.032;4.376;2022-09-28T06:43:31;6.30;;;1.50;;
70052;SDS011;57398;52.032;4.376;2022-09-28T06:46:00;7.27;;;1.63;;
70052;SDS011;57398;52.032;4.376;2022-09-28T06:48:28;5.13;;;1.75;;
70052;SDS011;57398;52.032;4.376;2022-09-28T06:50:57;4.03;;;1.55;;
70052;SDS011;57398;52.032;4.376;2022-09-28T06:53:25;3.95;;;1.50;;
70052;SDS011;57398;52.032;4.376;2022-09-28T06:55:54;4.60;;;1.42;;
70052;SDS011;57398;52.032;4.376;2022-09-28T06:58:23;4.07;;;1.50;;
70052;SDS011;57398;52.032;4.376;2022-09-28T07:00:54;4.30;;;1.40;;
70052;SDS011;57398;52.032;4.376;2022-09-28T07:03:24;4.60;;;1.70;;
70052;SDS011;57398;52.032;4.376;2022-09-28T07:05:52;4.20;;;1.40;;
70052;SDS011;57398;52.032;4.376;2022-09-28T07:08:20;4.80;;;1.58;;
70052;SDS011;57398;52.032;4.376;2022-09-28T07:10:50;5.23;;;1.50;;
70052;SDS011;57398;52.032;4.376;2022-09-28T07:13:21;4.22;;;1.50;;
70052;SDS011;57398;52.032;4.376;2022-09-28T07:16:10;4.47;;;1.60;;
70052;SDS011;57398;52.032;4.376;2022-09-28T07:18:38;5.78;;;2.10;;
70052;SDS011;57398;52.032;4.376;2022-09-28T07:21:07;7.00;;;2.30;;
70052;SDS011;57398;52.032;4.376;2022-09-28T07:23:47;7.03;;;2.30;;
70052;SDS011;57398;52.032;4.376;2022-09-28T07:26:19;6.15;;;2.00;;
70052;SDS011;57398;52.032;4.376;2022-09-28T07:28:49;5.70;;;2.30;;
70052;SDS011;57398;52.032;4.376;2022-09-28T07:31:18;6.65;;;2.03;;
70052;SDS011;57398;52.032;4.376;2022-09-28T07:33:48;5.03;;;1.60;;
70052;SDS011;57398;52.032;4.376;2022-09-28T07:36:16;5.90;;;1.70;;
70052;SDS011;57398;52.032;4.376;2022-09-28T07:38:46;5.05;;;1.58;;
70052;SDS011;57398;52.032;4.376;2022-09-28T07:41:13;5.25;;;1.30;;
70052;SDS011;57398;52.032;4.376;2022-09-28T07:43:43;7.47;;;1.60;;
70052;SDS011;57398;52.032;4.376;2022-09-28T07:46:10;4.47;;;1.80;;
70052;SDS011;57398;52.032;4.376;2022-09-28T07:48:40;6.43;;;1.90;;
70052;SDS011;57398;52.032;4.376;2022-09-28T07:51:08;4.85;;;1.80;;
70052;SDS011;57398;52.032;4.376;2022-09-28T07:53:36;5.72;;;2.08;;
70052;SDS011;57398;52.032;4.376;2022-09-28T07:56:04;5.85;;;2.10;;
70052;SDS011;57398;52.032;4.376;2022-09-28T07:58:34;7.22;;;2.30;;
70052;SDS011;57398;52.032;4.376;2022-09-28T08:01:03;5.53;;;2.33;;
70052;SDS011;57398;52.032;4.376;2022-09-28T08:03:31;6.63;;;2.40;;
70052;SDS011;57398;52.032;4.376;2022-09-28T08:06:01;4.95;;;2.47;;
70052;SDS011;57398;52.032;4.376;2022-09-28T08:08:28;6.07;;;2.47;;
70052;SDS011;57398;52.032;4.376;2022-09-28T08:10:56;6.75;;;2.60;;
70052;SDS011;57398;52.032;4.376;2022-09-28T08:13:24;7.87;;;2.73;;
70052;SDS011;57398;52.032;4.376;2022-09-28T08:15:52;5.97;;;2.38;;
70052;SDS011;57398;52.032;4.376;2022-09-28T08:18:20;8.85;;;2.40;;
70052;SDS011;57398;52.032;4.376;2022-09-28T08:20:50;6.88;;;3.05;;
70052;SDS011;57398;52.032;4.376;2022-09-28T08:23:37;5.47;;;2.30;;
70052;SDS011;57398;52.032;4.376;2022-09-28T08:26:04;6.30;;;2.20;;
70052;SDS011;57398;52.032;4.376;2022-09-28T08:28:32;7.07;;;2.70;;
70052;SDS011;57398;52.032;4.376;2022-09-28T08:31:00;5.85;;;2.22;;
70052;SDS011;57398;52.032;4.376;2022-09-28T08:33:28;5.40;;;1.90;;
70052;SDS011;57398;52.032;4.376;2022-09-28T08:35:55;3.92;;;1.60;;
70052;SDS011;57398;52.032;4.376;2022-09-28T08:38:23;4.40;;;1.20;;
70052;SDS011;57398;52.032;4.376;2022-09-28T08:40:56;3.78;;;1.20;;
70052;SDS011;57398;52.032;4.376;2022-09-28T08:43:31;4.22;;;1.13;;
70052;SDS011;57398;52.032;4.376;2022-09-28T08:46:04;4.13;;;1.23;;
70052;SDS011;57398;52.032;4.376;2022-09-28T08:48:33;3.33;;;1.10;;
70052;SDS011;57398;52.032;4.376;2022-09-28T08:51:31;4.43;;;1.20;;
70052;SDS011;57398;52.032;4.376;2022-09-28T08:54:02;4.22;;;1.00;;
70052;SDS011;57398;52.032;4.376;2022-09-28T08:56:38;3.78;;;1.00;;
70052;SDS011;57398;52.032;4.376;2022-09-28T08:59:08;2.72;;;0.70;;
70052;SDS011;57398;52.032;4.376;2022-09-28T09:01:37;3.03;;;0.93;;
70052;SDS011;57398;52.032;4.376;2022-09-28T09:04:06;2.87;;;0.80;;
70052;SDS011;57398;52.032;4.376;2022-09-28T09:06:37;2.25;;;0.90;;
70052;SDS011;57398;52.032;4.376;2022-09-28T09:09:13;3.90;;;1.13;;
70052;SDS011;57398;52.032;4.376;2022-09-28T09:11:48;4.05;;;1.08;;
70052;SDS011;57398;52.032;4.376;2022-09-28T09:14:25;3.55;;;0.93;;
70052;SDS011;57398;52.032;4.376;2022-09-28T09:16:57;4.20;;;0.90;;
70052;SDS011;57398;52.032;4.376;2022-09-28T09:19:32;5.00;;;0.80;;
70052;SDS011;57398;52.032;4.376;2022-09-28T09:22:04;2.88;;;0.88;;
70052;SDS011;57398;52.032;4.376;2022-09-28T09:24:36;2.47;;;0.63;;
70052;SDS011;57398;52.032;4.376;2022-09-28T09:27:12;2.97;;;0.60;;
70052;SDS011;57398;52.032;4.376;2022-09-28T09:29:44;1.93;;;0.63;;
70052;SDS011;57398;52.032;4.376;2022-09-28T09:32:22;2.30;;;0.70;;
70052;SDS011;57398;52.032;4.376;2022-09-28T09:35:13;2.35;;;0.60;;
70052;SDS011;57398;52.032;4.376;2022-09-28T09:38:13;2.03;;;0.47;;
70052;SDS011;57398;52.032;4.376;2022-09-28T09:40:49;1.73;;;0.68;;
70052;SDS011;57398;52.032;4.376;2022-09-28T09:43:31;3.40;;;1.03;;
70052;SDS011;57398;52.032;4.376;2022-09-28T09:46:09;2.97;;;0.80;;
70052;SDS011;57398;52.032;4.376;2022-09-28T09:48:38;1.80;;;0.70;;
70052;SDS011;57398;52.032;4.376;2022-09-28T09:51:11;2.67;;;1.10;;
70052;SDS011;57398;52.032;4.376;2022-09-28T09:53:43;2.28;;;0.70;;
70052;SDS011;57398;52.032;4.376;2022-09-28T09:56:13;4.30;;;0.70;;
70052;SDS011;57398;52.032;4.376;2022-09-28T09:58:43;2.25;;;0.68;;
70052;SDS011;57398;52.032;4.376;2022-09-28T10:01:14;2.42;;;0.68;;
70052;SDS011;57398;52.032;4.376;2022-09-28T10:03:44;1.67;;;0.57;;
70052;SDS011;57398;52.032;4.376;2022-09-28T10:06:14;1.50;;;0.60;;
70052;SDS011;57398;52.032;4.376;2022-09-28T10:08:43;2.33;;;0.50;;
70052;SDS011;57398;52.032;4.376;2022-09-28T10:11:13;2.88;;;0.60;;
70052;SDS011;57398;52.032;4.376;2022-09-28T10:13:41;1.40;;;0.60;;
70052;SDS011;57398;52.032;4.376;2022-09-28T10:16:11;2.22;;;0.50;;
70052;SDS011;57398;52.032;4.376;2022-09-28T10:18:38;1.83;;;0.50;;
70052;SDS011;57398;52.032;4.376;2022-09-28T10:21:06;2.70;;;0.60;;
70052;SDS011;57398;52.032;4.376;2022-09-28T10:23:37;2.08;;;0.52;;
70052;SDS011;57398;52.032;4.376;2022-09-28T10:26:07;1.52;;;0.40;;
70052;SDS011;57398;52.032;4.376;2022-09-28T10:28:38;2.25;;;0.50;;
70052;SDS011;57398;52.032;4.376;2022-09-28T10:33:49;2.50;;;0.80;;
70052;SDS011;57398;52.032;4.376;2022-09-28T10:36:19;3.78;;;0.82;;
70052;SDS011;57398;52.032;4.376;2022-09-28T10:38:46;3.78;;;1.20;;
70052;SDS011;57398;52.032;4.376;2022-09-28T10:41:15;2.72;;;1.08;;
70052;SDS011;57398;52.032;4.376;2022-09-28T10:43:48;2.22;;;0.82;;
70052;SDS011;57398;52.032;4.376;2022-09-28T10:46:31;3.40;;;1.00;;
70052;SDS011;57398;52.032;4.376;2022-09-28T10:49:00;3.03;;;1.00;;
70052;SDS011;57398;52.032;4.376;2022-09-28T10:51:40;2.13;;;0.80;;
70052;SDS011;57398;52.032;4.376;2022-09-28T10:54:12;1.90;;;0.70;;
70052;SDS011;57398;52.032;4.376;2022-09-28T10:56:40;2.22;;;0.70;;
70052;SDS011;57398;52.032;4.376;2022-09-28T10:59:21;2.63;;;0.80;;
70052;SDS011;57398;52.032;4.376;2022-09-28T11:01:51;2.53;;;0.75;;
70052;SDS011;57398;52.032;4.376;2022-09-28T11:04:21;2.42;;;0.60;;
70052;SDS011;57398;52.032;4.376;2022-09-28T11:06:50;2.72;;;0.70;;
70052;SDS011;57398;52.032;4.376;2022-09-28T11:09:22;2.90;;;0.80;;
70052;SDS011;57398;52.032;4.376;2022-09-28T11:11:56;2.80;;;0.70;;
70052;SDS011;57398;52.032;4.376;2022-09-28T11:14:24;2.00;;;0.50;;
70052;SDS011;57398;52.032;4.376;2022-09-28T11:19:36;1.60;;;0.70;;
70052;SDS011;57398;52.032;4.376;2022-09-28T11:22:17;3.75;;;0.80;;
70052;SDS011;57398;52.032;4.376;2022-09-28T11:24:46;1.33;;;0.50;;
70052;SDS011;57398;52.032;4.376;2022-09-28T11:27:20;2.63;;;0.60;;
70052;SDS011;57398;52.032;4.376;2022-09-28T11:29:52;1.40;;;0.50;;
70052;SDS011;57398;52.032;4.376;2022-09-28T11:32:22;1.40;;;0.45;;
70052;SDS011;57398;52.032;4.376;2022-09-28T11:34:51;2.58;;;0.70;;
70052;SDS011;57398;52.032;4.376;2022-09-28T11:37:31;2.77;;;0.70;;
70052;SDS011;57398;52.032;4.376;2022-09-28T11:40:03;1.83;;;0.50;;
70052;SDS011;57398;52.032;4.376;2022-09-28T11:42:37;1.55;;;0.52;;
70052;SDS011;57398;52.032;4.376;2022-09-28T11:45:17;1.92;;;0.40;;
70052;SDS011;57398;52.032;4.376;2022-09-28T11:47:48;2.30;;;0.60;;
70052;SDS011;57398;52.032;4.376;2022-09-28T11:50:21;1.97;;;0.40;;
70052;SDS011;57398;52.032;4.376;2022-09-28T11:52:53;2.20;;;0.70;;
70052;SDS011;57398;52.032;4.376;2022-09-28T11:55:23;3.03;;;0.60;;
70052;SDS011;57398;52.032;4.376;2022-09-28T11:57:53;1.67;;;0.80;;
70052;SDS011;57398;52.032;4.376;2022-09-28T12:00:23;3.47;;;0.68;;
70052;SDS011;57398;52.032;4.376;2022-09-28T12:02:52;4.03;;;0.70;;
70052;SDS011;57398;52.032;4.376;2022-09-28T12:05:24;1.85;;;0.60;;
70052;SDS011;57398;52.032;4.376;2022-09-28T12:07:53;2.67;;;0.65;;
70052;SDS011;57398;52.032;4.376;2022-09-28T12:10:25;2.08;;;0.80;;
70052;SDS011;57398;52.032;4.376;2022-09-28T12:12:57;3.78;;;0.70;;
70052;SDS011;57398;52.032;4.376;2022-09-28T12:15:39;2.60;;;0.60;;
70052;SDS011;57398;52.032;4.376;2022-09-28T12:18:29;3.47;;;0.82;;
70052;SDS011;57398;52.032;4.376;2022-09-28T12:21:06;3.42;;;1.10;;
70052;SDS011;57398;52.032;4.376;2022-09-28T12:23:35;3.45;;;1.25;;
70052;SDS011;57398;52.032;4.376;2022-09-28T12:26:05;3.90;;;0.95;;
70052;SDS011;57398;52.032;4.376;2022-09-28T12:28:38;2.10;;;0.80;;
70052;SDS011;57398;52.032;4.376;2022-09-28T12:31:09;3.00;;;0.90;;
70052;SDS011;57398;52.032;4.376;2022-09-28T12:33:39;1.98;;;0.50;;
70052;SDS011;57398;52.032;4.376;2022-09-28T12:36:12;2.47;;;0.75;;
70052;SDS011;57398;52.032;4.376;2022-09-28T12:38:48;2.17;;;0.80;;
70052;SDS011;57398;52.032;4.376;2022-09-28T12:41:41;2.97;;;1.07;;
70052;SDS011;57398;52.032;4.376;2022-09-28T12:44:21;3.35;;;1.00;;
70052;SDS011;57398;52.032;4.376;2022-09-28T12:46:57;5.22;;;2.22;;
70052;SDS011;57398;52.032;4.376;2022-09-28T12:49:36;2.40;;;1.10;;
70052;SDS011;57398;52.032;4.376;2022-09-28T12:52:30;2.17;;;0.70;;
70052;SDS011;57398;52.032;4.376;2022-09-28T12:55:05;2.13;;;0.70;;
70052;SDS011;57398;52.032;4.376;2022-09-28T12:57:44;9.18;;;1.83;;
70052;SDS011;57398;52.032;4.376;2022-09-28T13:00:14;3.25;;;0.80;;
70052;SDS011;57398;52.032;4.376;2022-09-28T13:08:32;3.50;;;0.73;;
70052;SDS011;57398;52.032;4.376;2022-09-28T13:11:03;8.35;;;1.23;;
70052;SDS011;57398;52.032;4.376;2022-09-28T13:13:36;1.58;;;0.50;;
70052;SDS011;57398;52.032;4.376;2022-09-28T13:16:07;5.28;;;0.65;;
70052;SDS011;57398;52.032;4.376;2022-09-28T13:18:39;2.63;;;0.60;;
70052;SDS011;57398;52.032;4.376;2022-09-28T13:21:09;10.23;;;2.50;;
70052;SDS011;57398;52.032;4.376;2022-09-28T13:23:43;2.85;;;0.80;;
70052;SDS011;57398;52.032;4.376;2022-09-28T13:26:13;5.75;;;1.35;;
70052;SDS011;57398;52.032;4.376;2022-09-28T13:28:41;3.42;;;0.98;;
70052;SDS011;57398;52.032;4.376;2022-09-28T13:31:10;3.22;;;1.08;;
70052;SDS011;57398;52.032;4.376;2022-09-28T13:33:39;4.20;;;1.43;;
70052;SDS011;57398;52.032;4.376;2022-09-28T13:38:51;4.30;;;1.10;;
70052;SDS011;57398;52.032;4.376;2022-09-28T13:41:20;8.52;;;1.95;;
70052;SDS011;57398;52.032;4.376;2022-09-28T13:43:53;6.60;;;1.30;;
70052;SDS011;57398;52.032;4.376;2022-09-28T13:46:25;4.37;;;1.30;;
70052;SDS011;57398;52.032;4.376;2022-09-28T13:48:58;17.15;;;3.75;;
70052;SDS011;57398;52.032;4.376;2022-09-28T13:51:35;10.50;;;2.05;;
70052;SDS011;57398;52.032;4.376;2022-09-28T13:54:11;10.18;;;2.28;;
70052;SDS011;57398;52.032;4.376;2022-09-28T13:56:43;5.35;;;1.33;;
70052;SDS011;57398;52.032;4.376;2022-09-28T13:59:17;2.43;;;1.10;;
70052;SDS011;57398;52.032;4.376;2022-09-28T14:01:49;6.95;;;1.88;;
70052;SDS011;57398;52.032;4.376;2022-09-28T14:04:21;3.85;;;1.17;;
70052;SDS011;57398;52.032;4.376;2022-09-28T14:06:49;4.18;;;1.50;;
70052;SDS011;57398;52.032;4.376;2022-09-28T14:09:26;4.60;;;1.20;;
70052;SDS011;57398;52.032;4.376;2022-09-28T14:14:48;3.03;;;1.00;;
70052;SDS011;57398;52.032;4.376;2022-09-28T14:20:11;2.60;;;1.00;;
70052;SDS011;57398;52.032;4.376;2022-09-28T14:22:41;2.72;;;0.93;;
70052;SDS011;57398;52.032;4.376;2022-09-28T14:25:18;2.10;;;0.70;;
70052;SDS011;57398;52.032;4.376;2022-09-28T14:27:51;4.13;;;0.90;;
70052;SDS011;57398;52.032;4.376;2022-09-28T14:30:25;2.88;;;1.00;;
70052;SDS011;57398;52.032;4.376;2022-09-28T14:32:54;3.40;;;0.90;;
70052;SDS011;57398;52.032;4.376;2022-09-28T14:35:24;5.05;;;1.50;;
70052;SDS011;57398;52.032;4.376;2022-09-28T14:37:54;2.93;;;1.17;;
70052;SDS011;57398;52.032;4.376;2022-09-28T14:40:56;3.15;;;0.90;;
70052;SDS011;57398;52.032;4.376;2022-09-28T14:43:57;3.03;;;0.98;;
70052;SDS011;57398;52.032;4.376;2022-09-28T14:46:26;2.38;;;1.02;;
70052;SDS011;57398;52.032;4.376;2022-09-28T14:48:54;2.67;;;0.98;;
70052;SDS011;57398;52.032;4.376;2022-09-28T14:54:12;2.33;;;0.90;;
70052;SDS011;57398;52.032;4.376;2022-09-28T14:56:44;2.58;;;1.00;;
70052;SDS011;57398;52.032;4.376;2022-09-28T14:59:13;2.53;;;1.17;;
70052;SDS011;57398;52.032;4.376;2022-09-28T15:01:43;2.42;;;1.00;;
70052;SDS011;57398;52.032;4.376;2022-09-28T15:04:13;3.67;;;1.20;;
70052;SDS011;57398;52.032;4.376;2022-09-28T15:06:44;4.00;;;1.10;;
70052;SDS011;57398;52.032;4.376;2022-09-28T15:09:25;3.08;;;1.27;;
70052;SDS011;57398;52.032;4.376;2022-09-28T15:11:58;3.17;;;1.23;;
70052;SDS011;57398;52.032;4.376;2022-09-28T15:14:26;2.80;;;1.20;;
70052;SDS011;57398;52.032;4.376;2022-09-28T15:16:56;3.23;;;1.20;;
70052;SDS011;57398;52.032;4.376;2022-09-28T15:19:25;4.63;;;1.10;;
70052;SDS011;57398;52.032;4.376;2022-09-28T15:21:58;4.18;;;1.42;;
70052;SDS011;57398;52.032;4.376;2022-09-28T15:24:27;3.95;;;1.33;;
70052;SDS011;57398;52.032;4.376;2022-09-28T15:26:56;5.00;;;1.35;;
70052;SDS011;57398;52.032;4.376;2022-09-28T15:29:25;3.23;;;1.33;;
70052;SDS011;57398;52.032;4.376;2022-09-28T15:31:56;3.85;;;1.40;;
70052;SDS011;57398;52.032;4.376;2022-09-28T15:34:27;4.10;;;1.30;;
70052;SDS011;57398;52.032;4.376;2022-09-28T15:37:13;3.85;;;1.45;;
70052;SDS011;57398;52.032;4.376;2022-09-28T15:39:41;2.72;;;1.10;;